sensor_id;sensor_type;location;lat;lon;timestamp;P1;durP1;ratioP1;P2;durP2;ratioP2
7917;SDS011;4004;42.624;23.386;2023-06-10T00:00:06;6.50;;;5.20;;
7917;SDS011;4004;42.624;23.386;2023-06-10T00:02:33;9.97;;;5.20;;
7917;SDS011;4004;42.624;23.386;2023-06-10T00:05:00;6.00;;;4.83;;
7917;SDS011;4004;42.624;23.386;2023-06-10T00:07:27;5.47;;;5.00;;
7917;SDS011;4004;42.624;23.386;2023-06-10T00:09:54;5.87;;;5.20;;
7917;SDS011;4004;42.624;23.386;2023-06-10T00:12:23;10.47;;;5.70;;
7917;SDS011;4004;42.624;23.386;2023-06-10T00:14:50;6.37;;;5.30;;
7917;SDS011;4004;42.624;23.386;2023-06-10T00:17:18;7.13;;;5.40;;
7917;SDS011;4004;42.624;23.386;2023-06-10T00:19:45;9.07;;;6.03;;
7917;SDS011;4004;42.624;23.386;2023-06-10T00:22:12;6.47;;;5.37;;
7917;SDS011;4004;42.624;23.386;2023-06-10T00:24:39;7.70;;;5.27;;
7917;SDS011;4004;42.624;23.386;2023-06-10T00:27:07;6.47;;;5.27;;
7917;SDS011;4004;42.624;23.386;2023-06-10T00:29:35;8.03;;;5.43;;
7917;SDS011;4004;42.624;23.386;2023-06-10T00:32:02;6.93;;;5.33;;
7917;SDS011;4004;42.624;23.386;2023-06-10T00:34:29;6.00;;;5.40;;
7917;SDS011;4004;42.624;23.386;2023-06-10T00:36:56;7.77;;;5.50;;
7917;SDS011;4004;42.624;23.386;2023-06-10T00:39:23;5.60;;;5.10;;
7917;SDS011;4004;42.624;23.386;2023-06-10T00:41:49;9.47;;;5.40;;
7917;SDS011;4004;42.624;23.386;2023-06-10T00:44:16;6.33;;;5.30;;
7917;SDS011;4004;42.624;23.386;2023-06-10T00:46:44;9.43;;;5.93;;
7917;SDS011;4004;42.624;23.386;2023-06-10T00:49:11;17.10;;;10.37;;
7917;SDS011;4004;42.624;23.386;2023-06-10T00:51:39;7.77;;;5.37;;
7917;SDS011;4004;42.624;23.386;2023-06-10T00:54:05;6.40;;;5.63;;
7917;SDS011;4004;42.624;23.386;2023-06-10T00:56:33;9.77;;;6.00;;
7917;SDS011;4004;42.624;23.386;2023-06-10T00:59:01;11.87;;;6.40;;
7917;SDS011;4004;42.624;23.386;2023-06-10T01:01:28;6.33;;;5.73;;
7917;SDS011;4004;42.624;23.386;2023-06-10T01:03:56;9.27;;;6.57;;
7917;SDS011;4004;42.624;23.386;2023-06-10T01:06:24;8.40;;;6.40;;
7917;SDS011;4004;42.624;23.386;2023-06-10T01:09:00;9.30;;;6.70;;
7917;SDS011;4004;42.624;23.386;2023-06-10T01:11:36;9.70;;;7.27;;
7917;SDS011;4004;42.624;23.386;2023-06-10T01:14:08;8.23;;;7.37;;
7917;SDS011;4004;42.624;23.386;2023-06-10T01:16:36;8.57;;;7.80;;
7917;SDS011;4004;42.624;23.386;2023-06-10T01:19:07;10.33;;;7.17;;
7917;SDS011;4004;42.624;23.386;2023-06-10T01:21:36;7.50;;;6.80;;
7917;SDS011;4004;42.624;23.386;2023-06-10T01:24:04;8.13;;;6.47;;
7917;SDS011;4004;42.624;23.386;2023-06-10T01:26:33;7.93;;;6.23;;
7917;SDS011;4004;42.624;23.386;2023-06-10T01:29:03;8.23;;;7.43;;
7917;SDS011;4004;42.624;23.386;2023-06-10T01:31:37;9.03;;;8.13;;
7917;SDS011;4004;42.624;23.386;2023-06-10T01:34:16;11.47;;;9.20;;
7917;SDS011;4004;42.624;23.386;2023-06-10T01:36:46;11.30;;;10.20;;
7917;SDS011;4004;42.624;23.386;2023-06-10T01:39:15;13.83;;;10.70;;
7917;SDS011;4004;42.624;23.386;2023-06-10T01:41:42;10.17;;;9.23;;
7917;SDS011;4004;42.624;23.386;2023-06-10T01:44:09;12.20;;;8.53;;
7917;SDS011;4004;42.624;23.386;2023-06-10T01:46:36;10.03;;;9.03;;
7917;SDS011;4004;42.624;23.386;2023-06-10T01:49:03;9.77;;;8.77;;
7917;SDS011;4004;42.624;23.386;2023-06-10T01:51:30;10.73;;;8.97;;
7917;SDS011;4004;42.624;23.386;2023-06-10T01:53:58;11.93;;;9.43;;
7917;SDS011;4004;42.624;23.386;2023-06-10T01:56:25;9.63;;;8.50;;
7917;SDS011;4004;42.624;23.386;2023-06-10T01:58:52;13.00;;;9.50;;
7917;SDS011;4004;42.624;23.386;2023-06-10T02:01:20;10.77;;;9.50;;
7917;SDS011;4004;42.624;23.386;2023-06-10T02:03:47;13.00;;;10.43;;
7917;SDS011;4004;42.624;23.386;2023-06-10T02:06:14;10.70;;;9.70;;
7917;SDS011;4004;42.624;23.386;2023-06-10T02:08:41;11.70;;;10.60;;
7917;SDS011;4004;42.624;23.386;2023-06-10T02:11:09;11.77;;;10.63;;
7917;SDS011;4004;42.624;23.386;2023-06-10T02:13:36;14.77;;;11.00;;
7917;SDS011;4004;42.624;23.386;2023-06-10T02:16:02;13.87;;;10.67;;
7917;SDS011;4004;42.624;23.386;2023-06-10T02:18:30;15.00;;;10.90;;
7917;SDS011;4004;42.624;23.386;2023-06-10T02:20:57;11.63;;;10.43;;
7917;SDS011;4004;42.624;23.386;2023-06-10T02:23:24;13.47;;;10.63;;
7917;SDS011;4004;42.624;23.386;2023-06-10T02:25:51;12.10;;;10.97;;
7917;SDS011;4004;42.624;23.386;2023-06-10T02:28:19;15.13;;;11.50;;
7917;SDS011;4004;42.624;23.386;2023-06-10T02:30:45;15.73;;;11.07;;
7917;SDS011;4004;42.624;23.386;2023-06-10T02:33:13;12.33;;;11.07;;
7917;SDS011;4004;42.624;23.386;2023-06-10T02:35:40;12.97;;;11.53;;
7917;SDS011;4004;42.624;23.386;2023-06-10T02:38:07;11.77;;;10.77;;
7917;SDS011;4004;42.624;23.386;2023-06-10T02:40:33;12.60;;;11.30;;
7917;SDS011;4004;42.624;23.386;2023-06-10T02:43:00;12.97;;;11.77;;
7917;SDS011;4004;42.624;23.386;2023-06-10T02:45:28;13.45;;;12.07;;
7917;SDS011;4004;42.624;23.386;2023-06-10T02:47:55;14.47;;;10.33;;
7917;SDS011;4004;42.624;23.386;2023-06-10T02:50:22;12.40;;;10.40;;
7917;SDS011;4004;42.624;23.386;2023-06-10T02:52:48;11.07;;;9.77;;
7917;SDS011;4004;42.624;23.386;2023-06-10T02:55:16;13.00;;;8.87;;
7917;SDS011;4004;42.624;23.386;2023-06-10T02:57:42;13.07;;;8.77;;
7917;SDS011;4004;42.624;23.386;2023-06-10T03:00:09;10.63;;;9.53;;
7917;SDS011;4004;42.624;23.386;2023-06-10T03:02:40;8.53;;;7.73;;
7917;SDS011;4004;42.624;23.386;2023-06-10T03:05:07;8.97;;;8.17;;
7917;SDS011;4004;42.624;23.386;2023-06-10T03:07:35;10.63;;;8.50;;
7917;SDS011;4004;42.624;23.386;2023-06-10T03:10:03;9.00;;;8.10;;
7917;SDS011;4004;42.624;23.386;2023-06-10T03:12:30;8.80;;;7.87;;
7917;SDS011;4004;42.624;23.386;2023-06-10T03:14:57;8.47;;;7.67;;
7917;SDS011;4004;42.624;23.386;2023-06-10T03:17:24;8.50;;;7.63;;
7917;SDS011;4004;42.624;23.386;2023-06-10T03:19:52;8.27;;;7.50;;
7917;SDS011;4004;42.624;23.386;2023-06-10T03:22:18;9.83;;;7.47;;
7917;SDS011;4004;42.624;23.386;2023-06-10T03:24:45;9.63;;;7.17;;
7917;SDS011;4004;42.624;23.386;2023-06-10T03:27:15;12.07;;;7.67;;
7917;SDS011;4004;42.624;23.386;2023-06-10T03:29:42;11.43;;;7.70;;
7917;SDS011;4004;42.624;23.386;2023-06-10T03:32:09;8.70;;;7.60;;
7917;SDS011;4004;42.624;23.386;2023-06-10T03:34:36;9.67;;;7.30;;
7917;SDS011;4004;42.624;23.386;2023-06-10T03:37:05;8.33;;;6.80;;
7917;SDS011;4004;42.624;23.386;2023-06-10T03:39:32;8.23;;;6.80;;
7917;SDS011;4004;42.624;23.386;2023-06-10T03:41:59;8.20;;;6.87;;
7917;SDS011;4004;42.624;23.386;2023-06-10T03:44:25;8.47;;;6.83;;
7917;SDS011;4004;42.624;23.386;2023-06-10T03:46:52;6.97;;;6.27;;
7917;SDS011;4004;42.624;23.386;2023-06-10T03:49:19;7.87;;;6.67;;
7917;SDS011;4004;42.624;23.386;2023-06-10T03:51:46;7.73;;;6.43;;
7917;SDS011;4004;42.624;23.386;2023-06-10T03:54:14;9.47;;;6.47;;
7917;SDS011;4004;42.624;23.386;2023-06-10T03:56:41;7.47;;;6.70;;
7917;SDS011;4004;42.624;23.386;2023-06-10T03:59:08;7.63;;;6.87;;
7917;SDS011;4004;42.624;23.386;2023-06-10T04:01:35;8.00;;;6.57;;
7917;SDS011;4004;42.624;23.386;2023-06-10T04:04:02;11.23;;;7.30;;
7917;SDS011;4004;42.624;23.386;2023-06-10T04:06:29;9.70;;;7.10;;
7917;SDS011;4004;42.624;23.386;2023-06-10T04:08:56;9.60;;;7.70;;
7917;SDS011;4004;42.624;23.386;2023-06-10T04:11:25;8.50;;;7.43;;
7917;SDS011;4004;42.624;23.386;2023-06-10T04:13:51;8.73;;;7.83;;
7917;SDS011;4004;42.624;23.386;2023-06-10T04:16:18;12.37;;;9.43;;
7917;SDS011;4004;42.624;23.386;2023-06-10T04:18:46;10.97;;;9.80;;
7917;SDS011;4004;42.624;23.386;2023-06-10T04:21:13;10.43;;;9.33;;
7917;SDS011;4004;42.624;23.386;2023-06-10T04:23:39;11.03;;;9.97;;
7917;SDS011;4004;42.624;23.386;2023-06-10T04:26:06;11.10;;;10.00;;
7917;SDS011;4004;42.624;23.386;2023-06-10T04:28:35;14.70;;;10.37;;
7917;SDS011;4004;42.624;23.386;2023-06-10T04:31:01;12.77;;;10.63;;
7917;SDS011;4004;42.624;23.386;2023-06-10T04:33:29;19.87;;;10.50;;
7917;SDS011;4004;42.624;23.386;2023-06-10T04:35:56;12.20;;;10.63;;
7917;SDS011;4004;42.624;23.386;2023-06-10T04:38:23;11.30;;;10.10;;
7917;SDS011;4004;42.624;23.386;2023-06-10T04:40:50;12.57;;;10.07;;
7917;SDS011;4004;42.624;23.386;2023-06-10T04:43:17;14.43;;;10.03;;
7917;SDS011;4004;42.624;23.386;2023-06-10T04:45:45;15.03;;;9.93;;
7917;SDS011;4004;42.624;23.386;2023-06-10T04:48:12;11.37;;;9.57;;
7917;SDS011;4004;42.624;23.386;2023-06-10T04:50:39;11.93;;;10.73;;
7917;SDS011;4004;42.624;23.386;2023-06-10T04:53:05;12.57;;;10.70;;
7917;SDS011;4004;42.624;23.386;2023-06-10T04:55:32;12.57;;;10.93;;
7917;SDS011;4004;42.624;23.386;2023-06-10T04:57:59;11.30;;;10.10;;
7917;SDS011;4004;42.624;23.386;2023-06-10T05:00:26;11.73;;;10.53;;
7917;SDS011;4004;42.624;23.386;2023-06-10T05:02:54;12.60;;;10.23;;
7917;SDS011;4004;42.624;23.386;2023-06-10T05:05:21;11.63;;;10.47;;
7917;SDS011;4004;42.624;23.386;2023-06-10T05:07:48;11.30;;;10.30;;
7917;SDS011;4004;42.624;23.386;2023-06-10T05:10:14;11.30;;;10.20;;
7917;SDS011;4004;42.624;23.386;2023-06-10T05:12:41;11.37;;;9.73;;
7917;SDS011;4004;42.624;23.386;2023-06-10T05:15:08;9.93;;;9.03;;
7917;SDS011;4004;42.624;23.386;2023-06-10T05:17:36;11.63;;;9.27;;
7917;SDS011;4004;42.624;23.386;2023-06-10T05:20:04;9.43;;;8.53;;
7917;SDS011;4004;42.624;23.386;2023-06-10T05:22:33;9.40;;;8.20;;
7917;SDS011;4004;42.624;23.386;2023-06-10T05:25:00;9.37;;;8.07;;
7917;SDS011;4004;42.624;23.386;2023-06-10T05:27:28;10.77;;;8.23;;
7917;SDS011;4004;42.624;23.386;2023-06-10T05:29:54;9.33;;;7.77;;
7917;SDS011;4004;42.624;23.386;2023-06-10T05:32:21;11.33;;;7.80;;
7917;SDS011;4004;42.624;23.386;2023-06-10T05:34:48;14.07;;;8.63;;
7917;SDS011;4004;42.624;23.386;2023-06-10T05:37:16;9.93;;;7.60;;
7917;SDS011;4004;42.624;23.386;2023-06-10T05:39:43;12.60;;;8.17;;
7917;SDS011;4004;42.624;23.386;2023-06-10T05:42:10;12.07;;;8.07;;
7917;SDS011;4004;42.624;23.386;2023-06-10T05:44:36;10.40;;;8.30;;
7917;SDS011;4004;42.624;23.386;2023-06-10T05:47:03;7.67;;;6.93;;
7917;SDS011;4004;42.624;23.386;2023-06-10T05:49:30;8.67;;;7.37;;
7917;SDS011;4004;42.624;23.386;2023-06-10T05:51:57;7.90;;;6.87;;
7917;SDS011;4004;42.624;23.386;2023-06-10T05:54:25;12.60;;;7.87;;
7917;SDS011;4004;42.624;23.386;2023-06-10T05:56:52;9.07;;;7.30;;
7917;SDS011;4004;42.624;23.386;2023-06-10T05:59:19;8.67;;;7.77;;
7917;SDS011;4004;42.624;23.386;2023-06-10T06:01:47;9.37;;;7.60;;
7917;SDS011;4004;42.624;23.386;2023-06-10T06:04:14;10.60;;;7.50;;
7917;SDS011;4004;42.624;23.386;2023-06-10T06:06:41;12.03;;;7.80;;
7917;SDS011;4004;42.624;23.386;2023-06-10T06:09:08;12.23;;;9.17;;
7917;SDS011;4004;42.624;23.386;2023-06-10T06:11:36;11.70;;;7.80;;
7917;SDS011;4004;42.624;23.386;2023-06-10T06:14:03;9.67;;;8.67;;
7917;SDS011;4004;42.624;23.386;2023-06-10T06:16:30;22.00;;;9.40;;
7917;SDS011;4004;42.624;23.386;2023-06-10T06:18:57;12.00;;;9.73;;
7917;SDS011;4004;42.624;23.386;2023-06-10T06:21:23;10.80;;;9.80;;
7917;SDS011;4004;42.624;23.386;2023-06-10T06:23:50;12.00;;;10.77;;
7917;SDS011;4004;42.624;23.386;2023-06-10T06:26:17;13.30;;;11.90;;
7917;SDS011;4004;42.624;23.386;2023-06-10T06:28:45;15.77;;;10.90;;
7917;SDS011;4004;42.624;23.386;2023-06-10T06:31:12;12.77;;;11.53;;
7917;SDS011;4004;42.624;23.386;2023-06-10T06:33:38;12.60;;;10.73;;
7917;SDS011;4004;42.624;23.386;2023-06-10T06:36:05;13.20;;;10.03;;
7917;SDS011;4004;42.624;23.386;2023-06-10T06:38:32;10.77;;;9.60;;
7917;SDS011;4004;42.624;23.386;2023-06-10T06:40:59;25.77;;;11.13;;
7917;SDS011;4004;42.624;23.386;2023-06-10T06:43:28;16.73;;;11.67;;
7917;SDS011;4004;42.624;23.386;2023-06-10T06:45:57;19.93;;;11.90;;
7917;SDS011;4004;42.624;23.386;2023-06-10T06:48:24;12.50;;;10.77;;
7917;SDS011;4004;42.624;23.386;2023-06-10T06:50:51;12.67;;;11.10;;
7917;SDS011;4004;42.624;23.386;2023-06-10T06:53:17;21.73;;;13.40;;
7917;SDS011;4004;42.624;23.386;2023-06-10T06:55:44;14.90;;;11.53;;
7917;SDS011;4004;42.624;23.386;2023-06-10T06:58:11;16.97;;;12.83;;
7917;SDS011;4004;42.624;23.386;2023-06-10T07:00:38;18.67;;;11.40;;
7917;SDS011;4004;42.624;23.386;2023-06-10T07:03:06;19.03;;;12.87;;
7917;SDS011;4004;42.624;23.386;2023-06-10T07:05:33;16.87;;;12.33;;
7917;SDS011;4004;42.624;23.386;2023-06-10T07:07:59;14.97;;;12.23;;
7917;SDS011;4004;42.624;23.386;2023-06-10T07:10:26;24.40;;;12.63;;
7917;SDS011;4004;42.624;23.386;2023-06-10T07:12:53;21.03;;;12.83;;
7917;SDS011;4004;42.624;23.386;2023-06-10T07:15:20;11.80;;;10.20;;
7917;SDS011;4004;42.624;23.386;2023-06-10T07:17:47;16.43;;;10.67;;
7917;SDS011;4004;42.624;23.386;2023-06-10T07:20:15;18.37;;;10.87;;
7917;SDS011;4004;42.624;23.386;2023-06-10T07:22:43;16.07;;;10.20;;
7917;SDS011;4004;42.624;23.386;2023-06-10T07:25:09;14.57;;;10.17;;
7917;SDS011;4004;42.624;23.386;2023-06-10T07:27:36;12.80;;;10.23;;
7917;SDS011;4004;42.624;23.386;2023-06-10T07:30:03;13.37;;;10.17;;
7917;SDS011;4004;42.624;23.386;2023-06-10T07:32:31;17.43;;;10.17;;
7917;SDS011;4004;42.624;23.386;2023-06-10T07:34:58;21.47;;;10.73;;
7917;SDS011;4004;42.624;23.386;2023-06-10T07:37:26;18.63;;;9.57;;
7917;SDS011;4004;42.624;23.386;2023-06-10T07:39:53;18.47;;;9.37;;
7917;SDS011;4004;42.624;23.386;2023-06-10T07:42:20;17.60;;;8.73;;
7917;SDS011;4004;42.624;23.386;2023-06-10T07:44:47;15.80;;;7.83;;
7917;SDS011;4004;42.624;23.386;2023-06-10T07:47:14;16.97;;;8.07;;
7917;SDS011;4004;42.624;23.386;2023-06-10T07:49:40;19.47;;;7.80;;
7917;SDS011;4004;42.624;23.386;2023-06-10T07:52:09;12.07;;;6.10;;
7917;SDS011;4004;42.624;23.386;2023-06-10T07:54:37;9.47;;;5.87;;
7917;SDS011;4004;42.624;23.386;2023-06-10T07:57:04;17.33;;;6.27;;
7917;SDS011;4004;42.624;23.386;2023-06-10T07:59:32;10.50;;;6.20;;
7917;SDS011;4004;42.624;23.386;2023-06-10T08:01:59;18.13;;;6.30;;
7917;SDS011;4004;42.624;23.386;2023-06-10T08:04:25;12.17;;;5.73;;
7917;SDS011;4004;42.624;23.386;2023-06-10T08:06:52;16.97;;;5.80;;
7917;SDS011;4004;42.624;23.386;2023-06-10T08:09:19;11.17;;;5.87;;
7917;SDS011;4004;42.624;23.386;2023-06-10T08:11:48;7.93;;;5.53;;
7917;SDS011;4004;42.624;23.386;2023-06-10T08:14:15;7.20;;;5.30;;
7917;SDS011;4004;42.624;23.386;2023-06-10T08:16:43;9.13;;;5.20;;
7917;SDS011;4004;42.624;23.386;2023-06-10T08:19:10;9.43;;;5.20;;
7917;SDS011;4004;42.624;23.386;2023-06-10T08:21:36;7.77;;;5.10;;
7917;SDS011;4004;42.624;23.386;2023-06-10T08:24:05;9.93;;;5.00;;
7917;SDS011;4004;42.624;23.386;2023-06-10T08:26:32;12.13;;;4.63;;
7917;SDS011;4004;42.624;23.386;2023-06-10T08:29:00;6.73;;;4.90;;
7917;SDS011;4004;42.624;23.386;2023-06-10T08:31:27;10.00;;;4.67;;
7917;SDS011;4004;42.624;23.386;2023-06-10T08:33:54;8.07;;;4.87;;
7917;SDS011;4004;42.624;23.386;2023-06-10T08:36:21;8.90;;;4.73;;
7917;SDS011;4004;42.624;23.386;2023-06-10T08:38:47;25.70;;;6.20;;
7917;SDS011;4004;42.624;23.386;2023-06-10T08:41:14;13.40;;;5.60;;
7917;SDS011;4004;42.624;23.386;2023-06-10T08:43:46;6.00;;;4.83;;
7917;SDS011;4004;42.624;23.386;2023-06-10T08:46:21;7.77;;;4.80;;
7917;SDS011;4004;42.624;23.386;2023-06-10T08:48:48;7.33;;;3.20;;
7917;SDS011;4004;42.624;23.386;2023-06-10T08:51:21;4.43;;;2.90;;
7917;SDS011;4004;42.624;23.386;2023-06-10T08:53:53;3.40;;;2.30;;
7917;SDS011;4004;42.624;23.386;2023-06-10T08:56:27;3.87;;;2.57;;
7917;SDS011;4004;42.624;23.386;2023-06-10T08:58:56;3.80;;;3.07;;
7917;SDS011;4004;42.624;23.386;2023-06-10T09:01:25;5.03;;;3.17;;
7917;SDS011;4004;42.624;23.386;2023-06-10T09:03:52;4.23;;;3.30;;
7917;SDS011;4004;42.624;23.386;2023-06-10T09:06:20;3.90;;;3.00;;
7917;SDS011;4004;42.624;23.386;2023-06-10T09:08:48;3.93;;;3.30;;
7917;SDS011;4004;42.624;23.386;2023-06-10T09:11:16;14.43;;;3.93;;
7917;SDS011;4004;42.624;23.386;2023-06-10T09:13:43;4.73;;;2.87;;
7917;SDS011;4004;42.624;23.386;2023-06-10T09:16:09;6.87;;;2.87;;
7917;SDS011;4004;42.624;23.386;2023-06-10T09:18:39;5.83;;;2.73;;
7917;SDS011;4004;42.624;23.386;2023-06-10T09:21:06;4.70;;;2.93;;
7917;SDS011;4004;42.624;23.386;2023-06-10T09:23:32;7.33;;;3.17;;
7917;SDS011;4004;42.624;23.386;2023-06-10T09:25:59;7.43;;;4.37;;
7917;SDS011;4004;42.624;23.386;2023-06-10T09:28:26;6.63;;;3.40;;
7917;SDS011;4004;42.624;23.386;2023-06-10T09:31:01;15.27;;;4.13;;
7917;SDS011;4004;42.624;23.386;2023-06-10T09:33:29;7.13;;;3.30;;
7917;SDS011;4004;42.624;23.386;2023-06-10T09:35:58;17.97;;;4.17;;
7917;SDS011;4004;42.624;23.386;2023-06-10T09:38:31;10.07;;;3.93;;
7917;SDS011;4004;42.624;23.386;2023-06-10T09:41:00;12.50;;;4.10;;
7917;SDS011;4004;42.624;23.386;2023-06-10T09:43:38;8.83;;;3.77;;
7917;SDS011;4004;42.624;23.386;2023-06-10T09:46:07;5.47;;;3.07;;
7917;SDS011;4004;42.624;23.386;2023-06-10T09:48:41;4.27;;;3.27;;
7917;SDS011;4004;42.624;23.386;2023-06-10T09:51:10;4.40;;;2.70;;
7917;SDS011;4004;42.624;23.386;2023-06-10T09:53:38;5.47;;;3.13;;
7917;SDS011;4004;42.624;23.386;2023-06-10T09:56:05;4.63;;;2.93;;
7917;SDS011;4004;42.624;23.386;2023-06-10T09:58:35;6.50;;;3.47;;
7917;SDS011;4004;42.624;23.386;2023-06-10T10:01:06;6.27;;;3.30;;
7917;SDS011;4004;42.624;23.386;2023-06-10T10:03:42;8.97;;;3.30;;
7917;SDS011;4004;42.624;23.386;2023-06-10T10:06:15;6.40;;;3.70;;
7917;SDS011;4004;42.624;23.386;2023-06-10T10:08:43;7.88;;;3.88;;
7917;SDS011;4004;42.624;23.386;2023-06-10T10:11:10;5.50;;;3.63;;
7917;SDS011;4004;42.624;23.386;2023-06-10T10:13:37;6.90;;;5.00;;
7917;SDS011;4004;42.624;23.386;2023-06-10T10:16:04;6.47;;;3.37;;
7917;SDS011;4004;42.624;23.386;2023-06-10T10:18:36;3.80;;;3.10;;
7917;SDS011;4004;42.624;23.386;2023-06-10T10:21:07;6.93;;;3.27;;
7917;SDS011;4004;42.624;23.386;2023-06-10T10:23:40;4.33;;;3.27;;
7917;SDS011;4004;42.624;23.386;2023-06-10T10:26:14;4.70;;;3.10;;
7917;SDS011;4004;42.624;23.386;2023-06-10T10:28:45;5.03;;;3.30;;
7917;SDS011;4004;42.624;23.386;2023-06-10T10:31:18;3.83;;;3.30;;
7917;SDS011;4004;42.624;23.386;2023-06-10T10:33:49;5.37;;;2.73;;
7917;SDS011;4004;42.624;23.386;2023-06-10T10:36:22;4.60;;;3.20;;
7917;SDS011;4004;42.624;23.386;2023-06-10T10:38:49;4.60;;;2.83;;
7917;SDS011;4004;42.624;23.386;2023-06-10T10:41:17;8.27;;;3.10;;
7917;SDS011;4004;42.624;23.386;2023-06-10T10:43:46;5.70;;;3.20;;
7917;SDS011;4004;42.624;23.386;2023-06-10T10:46:14;4.63;;;2.83;;
7917;SDS011;4004;42.624;23.386;2023-06-10T10:48:42;2.73;;;2.13;;
7917;SDS011;4004;42.624;23.386;2023-06-10T10:51:09;4.43;;;2.50;;
7917;SDS011;4004;42.624;23.386;2023-06-10T10:53:38;4.87;;;3.10;;
7917;SDS011;4004;42.624;23.386;2023-06-10T10:56:06;4.10;;;2.73;;
7917;SDS011;4004;42.624;23.386;2023-06-10T10:58:33;4.67;;;2.80;;
7917;SDS011;4004;42.624;23.386;2023-06-10T11:01:01;5.30;;;2.67;;
7917;SDS011;4004;42.624;23.386;2023-06-10T11:03:41;4.40;;;3.03;;
7917;SDS011;4004;42.624;23.386;2023-06-10T11:06:11;4.43;;;3.33;;
7917;SDS011;4004;42.624;23.386;2023-06-10T11:08:49;5.63;;;2.90;;
7917;SDS011;4004;42.624;23.386;2023-06-10T11:11:19;5.13;;;2.90;;
7917;SDS011;4004;42.624;23.386;2023-06-10T11:16:52;4.27;;;2.73;;
7917;SDS011;4004;42.624;23.386;2023-06-10T11:19:33;3.80;;;2.80;;
7917;SDS011;4004;42.624;23.386;2023-06-10T11:22:01;3.50;;;2.70;;
7917;SDS011;4004;42.624;23.386;2023-06-10T11:24:30;6.43;;;3.07;;
7917;SDS011;4004;42.624;23.386;2023-06-10T11:32:25;9.27;;;3.23;;
7917;SDS011;4004;42.624;23.386;2023-06-10T11:34:56;3.37;;;3.07;;
7917;SDS011;4004;42.624;23.386;2023-06-10T11:37:23;3.67;;;2.70;;
7917;SDS011;4004;42.624;23.386;2023-06-10T11:39:52;3.87;;;2.90;;
7917;SDS011;4004;42.624;23.386;2023-06-10T11:42:21;2.80;;;2.60;;
7917;SDS011;4004;42.624;23.386;2023-06-10T11:44:48;6.13;;;2.90;;
7917;SDS011;4004;42.624;23.386;2023-06-10T11:47:15;6.40;;;2.97;;
7917;SDS011;4004;42.624;23.386;2023-06-10T11:49:42;3.53;;;2.80;;
7917;SDS011;4004;42.624;23.386;2023-06-10T11:52:09;8.57;;;3.23;;
7917;SDS011;4004;42.624;23.386;2023-06-10T11:54:37;15.37;;;3.77;;
7917;SDS011;4004;42.624;23.386;2023-06-10T11:57:05;5.43;;;3.37;;
7917;SDS011;4004;42.624;23.386;2023-06-10T11:59:33;3.40;;;3.10;;
7917;SDS011;4004;42.624;23.386;2023-06-10T12:02:00;2.70;;;2.40;;
7917;SDS011;4004;42.624;23.386;2023-06-10T12:04:27;6.67;;;3.50;;
7917;SDS011;4004;42.624;23.386;2023-06-10T12:06:54;6.47;;;3.27;;
7917;SDS011;4004;42.624;23.386;2023-06-10T12:09:21;7.23;;;3.60;;
7917;SDS011;4004;42.624;23.386;2023-06-10T12:11:49;6.13;;;3.00;;
7917;SDS011;4004;42.624;23.386;2023-06-10T12:17:20;2.90;;;2.70;;
7917;SDS011;4004;42.624;23.386;2023-06-10T12:19:48;3.93;;;2.80;;
7917;SDS011;4004;42.624;23.386;2023-06-10T12:22:15;4.30;;;2.57;;
7917;SDS011;4004;42.624;23.386;2023-06-10T12:24:44;3.23;;;2.67;;
7917;SDS011;4004;42.624;23.386;2023-06-10T12:27:11;5.80;;;2.63;;
7917;SDS011;4004;42.624;23.386;2023-06-10T12:29:39;2.57;;;2.37;;
7917;SDS011;4004;42.624;23.386;2023-06-10T12:32:07;7.17;;;2.60;;
7917;SDS011;4004;42.624;23.386;2023-06-10T12:34:36;7.83;;;3.17;;
7917;SDS011;4004;42.624;23.386;2023-06-10T12:37:04;12.67;;;4.07;;
7917;SDS011;4004;42.624;23.386;2023-06-10T12:39:32;6.03;;;3.03;;
7917;SDS011;4004;42.624;23.386;2023-06-10T12:42:00;6.50;;;2.90;;
7917;SDS011;4004;42.624;23.386;2023-06-10T12:44:30;4.63;;;2.83;;
7917;SDS011;4004;42.624;23.386;2023-06-10T12:46:59;17.10;;;4.07;;
7917;SDS011;4004;42.624;23.386;2023-06-10T12:49:28;21.83;;;3.90;;
7917;SDS011;4004;42.624;23.386;2023-06-10T12:51:54;7.27;;;2.83;;
7917;SDS011;4004;42.624;23.386;2023-06-10T12:54:21;7.23;;;3.10;;
7917;SDS011;4004;42.624;23.386;2023-06-10T12:56:48;3.10;;;2.90;;
7917;SDS011;4004;42.624;23.386;2023-06-10T12:59:15;6.10;;;2.70;;
7917;SDS011;4004;42.624;23.386;2023-06-10T13:01:42;3.93;;;2.97;;
7917;SDS011;4004;42.624;23.386;2023-06-10T13:04:08;4.67;;;2.70;;
7917;SDS011;4004;42.624;23.386;2023-06-10T13:06:36;3.07;;;2.77;;
7917;SDS011;4004;42.624;23.386;2023-06-10T13:09:07;3.50;;;3.10;;
7917;SDS011;4004;42.624;23.386;2023-06-10T13:11:34;4.63;;;2.80;;
7917;SDS011;4004;42.624;23.386;2023-06-10T13:14:01;4.47;;;2.70;;
7917;SDS011;4004;42.624;23.386;2023-06-10T13:16:30;3.60;;;3.07;;
7917;SDS011;4004;42.624;23.386;2023-06-10T13:18:58;3.27;;;2.70;;
7917;SDS011;4004;42.624;23.386;2023-06-10T13:21:25;3.43;;;2.63;;
7917;SDS011;4004;42.624;23.386;2023-06-10T13:23:54;2.97;;;2.67;;
7917;SDS011;4004;42.624;23.386;2023-06-10T13:26:20;4.70;;;2.60;;
7917;SDS011;4004;42.624;23.386;2023-06-10T13:28:47;3.93;;;2.67;;
7917;SDS011;4004;42.624;23.386;2023-06-10T13:31:14;3.13;;;2.57;;
7917;SDS011;4004;42.624;23.386;2023-06-10T13:33:40;4.63;;;2.60;;
7917;SDS011;4004;42.624;23.386;2023-06-10T13:36:08;6.57;;;3.37;;
7917;SDS011;4004;42.624;23.386;2023-06-10T13:38:35;3.50;;;2.67;;
7917;SDS011;4004;42.624;23.386;2023-06-10T13:41:03;12.10;;;3.63;;
7917;SDS011;4004;42.624;23.386;2023-06-10T13:43:30;6.20;;;3.70;;
7917;SDS011;4004;42.624;23.386;2023-06-10T13:45:57;3.70;;;3.20;;
7917;SDS011;4004;42.624;23.386;2023-06-10T13:48:24;7.60;;;3.53;;
7917;SDS011;4004;42.624;23.386;2023-06-10T13:50:51;10.93;;;3.73;;
7917;SDS011;4004;42.624;23.386;2023-06-10T13:53:17;9.50;;;3.83;;
7917;SDS011;4004;42.624;23.386;2023-06-10T13:55:44;7.07;;;3.83;;
7917;SDS011;4004;42.624;23.386;2023-06-10T13:58:12;11.87;;;4.50;;
7917;SDS011;4004;42.624;23.386;2023-06-10T14:00:39;8.27;;;4.87;;
7917;SDS011;4004;42.624;23.386;2023-06-10T14:03:06;11.00;;;3.93;;
7917;SDS011;4004;42.624;23.386;2023-06-10T14:05:32;11.73;;;4.50;;
7917;SDS011;4004;42.624;23.386;2023-06-10T14:08:00;9.57;;;4.60;;
7917;SDS011;4004;42.624;23.386;2023-06-10T14:10:27;7.17;;;4.17;;
7917;SDS011;4004;42.624;23.386;2023-06-10T14:12:53;5.70;;;3.87;;
7917;SDS011;4004;42.624;23.386;2023-06-10T14:15:21;4.60;;;3.50;;
7917;SDS011;4004;42.624;23.386;2023-06-10T14:17:48;7.90;;;4.43;;
7917;SDS011;4004;42.624;23.386;2023-06-10T14:20:15;4.10;;;3.50;;
7917;SDS011;4004;42.624;23.386;2023-06-10T14:22:42;12.33;;;3.73;;
7917;SDS011;4004;42.624;23.386;2023-06-10T14:25:08;6.33;;;3.77;;
7917;SDS011;4004;42.624;23.386;2023-06-10T14:27:36;7.87;;;3.63;;
7917;SDS011;4004;42.624;23.386;2023-06-10T14:30:03;5.57;;;3.53;;
7917;SDS011;4004;42.624;23.386;2023-06-10T14:32:32;9.03;;;3.87;;
7917;SDS011;4004;42.624;23.386;2023-06-10T14:34:59;4.20;;;3.80;;
7917;SDS011;4004;42.624;23.386;2023-06-10T14:37:25;7.93;;;4.17;;
7917;SDS011;4004;42.624;23.386;2023-06-10T14:39:52;4.33;;;3.67;;
7917;SDS011;4004;42.624;23.386;2023-06-10T14:42:19;10.07;;;4.13;;
7917;SDS011;4004;42.624;23.386;2023-06-10T14:44:45;6.47;;;4.43;;
7917;SDS011;4004;42.624;23.386;2023-06-10T14:47:12;10.67;;;4.50;;
7917;SDS011;4004;42.624;23.386;2023-06-10T14:49:40;7.93;;;4.97;;
7917;SDS011;4004;42.624;23.386;2023-06-10T14:52:09;7.63;;;4.40;;
7917;SDS011;4004;42.624;23.386;2023-06-10T14:54:36;9.90;;;4.37;;
7917;SDS011;4004;42.624;23.386;2023-06-10T14:57:02;8.07;;;3.97;;
7917;SDS011;4004;42.624;23.386;2023-06-10T14:59:30;5.10;;;4.00;;
7917;SDS011;4004;42.624;23.386;2023-06-10T15:01:58;5.10;;;4.17;;
7917;SDS011;4004;42.624;23.386;2023-06-10T15:04:25;9.30;;;4.20;;
7917;SDS011;4004;42.624;23.386;2023-06-10T15:06:54;5.20;;;4.63;;